Pagina principale
METAR-TAF:

METAR-TAF

Aeroporti :

Piattaforma petrolifera

Euro, Paesi Bassi

latitudine: 51-59-52N, longitudine: 3-16-30E, altezza: 18 m

Osservazione

Il bollettino è stato emesso 39 minuti fa, alle 09:55 UTC
Vento 14 kt da ovest/sud-ovest
Temperature 13°C
Umidità 67%
Pressione 1006 hPa
Visibilità 10 km o più

METAR: EHSA 070955Z AUTO 25014KT 9999 ///////// 13/07 Q1006 W12/H14

Ora: 12:34 (10:34 UTC)


TAF: mancante

Osservazioni e previsioni meteorologiche di più di 4000 aeroporti (messaggi METAR e TAF).

Le stazioni disponibili sono rappresentate dai dischi gialli e rossi sulla carta.

Puntare il mouse per vedere il nome della stazione.

Clicca sopra per visualizzare le osservazioni e previsioni meteorologiche.

Per cambiare la mappa : fare clic sui pulsanti verdi con una croce nera per ingrandire, il pulsante verde con un trattino per diminuire, o sulla freccia verde per le mappe adiacenti.


METAR-TAF: